Time;durP1;ratioP1;P1;durP2;ratioP2;P2;SDS_P1;SDS_P2;PMS_P1;PMS_P2;Temp;Humidity;BMP_temperature;BMP_pressure;BME280_temperature;BME280_humidity;BME280_pressure;Samples;Min_cycle;Max_cycle;Signal;HPM_P1;HPM_P2
2023/10/15 00:00:51;;;;;;;12.55;3.40;;;;;;;;;;5061517;28;20404;-58
2023/10/15 00:03:18;;;;;;;13.48;3.55;;;;;;;;;;5061815;28;20423;-61
2023/10/15 00:05:45;;;;;;;11.63;2.97;;;;;;;;;;5059345;28;20417;-59
2023/10/15 00:08:12;;;;;;;11.27;3.28;;;;;;;;;;5062033;28;20933;-59
2023/10/15 00:10:39;;;;;;;12.63;3.13;;;;;;;;;;5060181;28;20430;-60
2023/10/15 00:13:07;;;;;;;10.20;3.35;;;;;;;;;;5062431;28;20420;-58
2023/10/15 00:15:35;;;;;;;8.55;3.08;;;;;;;;;;5063224;28;20459;-59
2023/10/15 00:18:02;;;;;;;11.40;2.92;;;;;;;;;;5065117;28;20493;-57
2023/10/15 00:20:34;;;;;;;10.15;3.30;;;;;;;;;;5063559;28;20461;-58
2023/10/15 00:23:04;;;;;;;8.98;3.28;;;;;;;;;;5060677;28;20456;-60
2023/10/15 00:25:35;;;;;;;10.20;3.55;;;;;;;;;;5059095;28;20840;-60
2023/10/15 00:28:05;;;;;;;13.77;3.97;;;;;;;;;;5060814;28;20408;-59
2023/10/15 00:30:34;;;;;;;11.40;3.42;;;;;;;;;;5061237;28;20947;-60
2023/10/15 00:33:06;;;;;;;11.20;3.50;;;;;;;;;;5060922;28;20494;-60
2023/10/15 00:35:34;;;;;;;9.07;2.78;;;;;;;;;;5062608;28;20771;-61
2023/10/15 00:38:07;;;;;;;14.75;3.90;;;;;;;;;;5061727;28;20580;-60
2023/10/15 00:40:37;;;;;;;9.50;3.43;;;;;;;;;;5061942;28;20496;-58
2023/10/15 00:43:04;;;;;;;11.88;3.60;;;;;;;;;;5065070;28;20411;-61
2023/10/15 00:45:34;;;;;;;8.80;3.10;;;;;;;;;;5059420;28;20417;-61
2023/10/15 00:48:07;;;;;;;8.63;2.95;;;;;;;;;;5059596;28;20453;-61
2023/10/15 00:50:38;;;;;;;10.20;3.30;;;;;;;;;;5059166;28;20759;-61
2023/10/15 00:53:20;;;;;;;12.02;3.83;;;;;;;;;;5059172;28;20891;-60
2023/10/15 00:55:48;;;;;;;8.00;3.10;;;;;;;;;;5060384;28;20471;-59
2023/10/15 00:58:21;;;;;;;11.25;3.53;;;;;;;;;;5064683;28;20419;-60
2023/10/15 01:00:52;;;;;;;9.67;3.57;;;;;;;;;;5061682;28;20449;-57
2023/10/15 01:03:30;;;;;;;12.48;3.72;;;;;;;;;;5058571;28;20436;-58
2023/10/15 01:06:04;;;;;;;11.75;3.70;;;;;;;;;;5060503;28;20451;-61
2023/10/15 01:08:35;;;;;;;11.65;3.60;;;;;;;;;;5058529;28;20440;-59
2023/10/15 01:11:09;;;;;;;8.45;3.25;;;;;;;;;;5058953;28;20807;-58
2023/10/15 01:13:36;;;;;;;10.60;3.25;;;;;;;;;;5049705;28;20405;-58
2023/10/15 01:16:05;;;;;;;12.02;3.55;;;;;;;;;;5049454;28;20479;-57
2023/10/15 01:18:33;;;;;;;11.55;4.07;;;;;;;;;;5049601;28;20463;-57
2023/10/15 01:21:01;;;;;;;10.27;3.95;;;;;;;;;;5049708;28;20456;-58
2023/10/15 01:23:32;;;;;;;11.38;3.35;;;;;;;;;;5049679;28;20413;-61
2023/10/15 01:26:01;;;;;;;9.52;3.60;;;;;;;;;;5061188;28;20447;-58
2023/10/15 01:28:36;;;;;;;10.25;3.47;;;;;;;;;;5059299;28;20927;-59
2023/10/15 01:31:05;;;;;;;10.98;3.90;;;;;;;;;;5058116;28;20508;-59
2023/10/15 01:33:37;;;;;;;10.38;3.53;;;;;;;;;;5059802;28;20439;-61
2023/10/15 01:36:06;;;;;;;6.68;3.15;;;;;;;;;;5060702;28;20469;-61
2023/10/15 01:38:34;;;;;;;12.50;3.58;;;;;;;;;;5059050;28;20417;-57
2023/10/15 01:41:05;;;;;;;8.60;3.10;;;;;;;;;;5058830;28;20840;-58
2023/10/15 01:43:35;;;;;;;10.10;3.43;;;;;;;;;;5058472;28;20495;-58
2023/10/15 01:46:10;;;;;;;9.63;3.33;;;;;;;;;;5059088;28;20874;-59
2023/10/15 01:48:41;;;;;;;9.98;3.40;;;;;;;;;;5058361;28;20413;-58
2023/10/15 01:51:08;;;;;;;8.20;3.13;;;;;;;;;;5058871;28;20464;-59
2023/10/15 01:53:36;;;;;;;8.95;3.30;;;;;;;;;;5060938;28;20416;-58
2023/10/15 01:56:05;;;;;;;13.50;4.70;;;;;;;;;;5059221;28;20420;-59
2023/10/15 01:58:32;;;;;;;8.57;4.30;;;;;;;;;;5059128;28;20409;-59
2023/10/15 02:01:09;;;;;;;11.10;4.25;;;;;;;;;;5060774;28;20810;-58
2023/10/15 02:03:37;;;;;;;11.10;4.10;;;;;;;;;;5060019;28;20949;-56
2023/10/15 02:06:07;;;;;;;9.45;4.07;;;;;;;;;;5058341;28;20419;-60
2023/10/15 02:08:36;;;;;;;11.13;4.13;;;;;;;;;;5057361;28;20422;-61
2023/10/15 02:11:15;;;;;;;11.55;5.45;;;;;;;;;;5060395;28;20423;-61
2023/10/15 02:13:44;;;;;;;13.32;7.18;;;;;;;;;;5049584;28;20413;-60
2023/10/15 02:16:18;;;;;;;17.08;10.90;;;;;;;;;;5048964;28;20413;-58
2023/10/15 02:18:51;;;;;;;19.17;11.75;;;;;;;;;;5049421;28;20413;-61
2023/10/15 02:21:19;;;;;;;19.43;12.63;;;;;;;;;;5049539;28;20410;-61
2023/10/15 02:23:52;;;;;;;19.85;12.85;;;;;;;;;;5051482;28;20425;-58
2023/10/15 02:26:23;;;;;;;16.20;12.48;;;;;;;;;;5057849;28;20417;-60
2023/10/15 02:28:53;;;;;;;21.08;13.82;;;;;;;;;;5059912;28;20502;-58
2023/10/15 02:31:22;;;;;;;21.80;14.27;;;;;;;;;;5064493;28;20530;-56
2023/10/15 02:33:49;;;;;;;19.02;13.75;;;;;;;;;;5052981;28;20419;-61
2023/10/15 02:36:17;;;;;;;19.75;13.82;;;;;;;;;;5060142;28;20471;-59
2023/10/15 02:38:54;;;;;;;19.30;13.48;;;;;;;;;;5061034;28;20884;-60
2023/10/15 02:41:24;;;;;;;20.13;13.05;;;;;;;;;;5062254;28;20777;-59
2023/10/15 02:43:53;;;;;;;19.27;13.07;;;;;;;;;;5064240;28;20502;-59
2023/10/15 02:46:22;;;;;;;18.23;12.82;;;;;;;;;;5062416;28;20791;-59
2023/10/15 02:48:53;;;;;;;19.10;12.52;;;;;;;;;;5061291;28;20448;-62
2023/10/15 02:51:23;;;;;;;15.82;11.90;;;;;;;;;;5052407;28;20429;-60
2023/10/15 02:53:52;;;;;;;18.70;11.95;;;;;;;;;;5052525;28;20986;-58
2023/10/15 02:56:20;;;;;;;17.92;11.50;;;;;;;;;;5052208;28;20421;-57
2023/10/15 02:58:48;;;;;;;17.13;12.68;;;;;;;;;;5052374;28;20424;-59
2023/10/15 03:01:19;;;;;;;13.50;11.15;;;;;;;;;;5060617;28;20459;-59
2023/10/15 03:03:49;;;;;;;15.45;11.20;;;;;;;;;;5052263;28;20504;-60
2023/10/15 03:06:18;;;;;;;18.03;10.60;;;;;;;;;;5059780;28;20494;-61
2023/10/15 03:08:47;;;;;;;16.83;10.45;;;;;;;;;;5060607;28;20555;-57
2023/10/15 03:11:14;;;;;;;17.83;11.23;;;;;;;;;;5062445;28;20431;-59
2023/10/15 03:13:49;;;;;;;15.70;11.35;;;;;;;;;;5063020;28;20416;-58
2023/10/15 03:16:18;;;;;;;18.02;10.82;;;;;;;;;;5051779;28;20445;-61
2023/10/15 03:18:48;;;;;;;16.65;11.10;;;;;;;;;;5051790;28;20427;-60
2023/10/15 03:21:20;;;;;;;16.48;11.57;;;;;;;;;;5059735;28;20396;-60
2023/10/15 03:23:49;;;;;;;18.67;11.48;;;;;;;;;;5062569;28;20932;-60
2023/10/15 03:26:18;;;;;;;15.68;11.57;;;;;;;;;;5060817;28;20860;-60
2023/10/15 03:28:45;;;;;;;18.08;11.63;;;;;;;;;;5067028;28;20488;-60
2023/10/15 03:31:15;;;;;;;16.85;11.55;;;;;;;;;;5069246;28;20447;-61
2023/10/15 03:34:03;;;;;;;16.83;12.32;;;;;;;;;;5056049;28;20423;-62
2023/10/15 03:36:42;;;;;;;18.63;12.70;;;;;;;;;;5061915;28;20766;-60
2023/10/15 03:39:15;;;;;;;22.03;13.13;;;;;;;;;;5059618;28;20411;-62
2023/10/15 03:41:43;;;;;;;16.85;12.38;;;;;;;;;;5061138;28;20403;-62
2023/10/15 03:44:11;;;;;;;18.63;11.98;;;;;;;;;;5062792;28;20448;-61
2023/10/15 03:46:38;;;;;;;19.90;13.40;;;;;;;;;;5060369;28;20413;-60
2023/10/15 03:49:07;;;;;;;15.98;12.85;;;;;;;;;;5061073;28;20913;-60
2023/10/15 03:51:40;;;;;;;18.70;13.95;;;;;;;;;;5062770;28;20426;-63
2023/10/15 03:54:07;;;;;;;20.02;13.05;;;;;;;;;;5061348;28;20764;-60
2023/10/15 03:56:35;;;;;;;21.70;12.52;;;;;;;;;;5059944;28;20825;-60
2023/10/15 03:59:02;;;;;;;17.77;12.27;;;;;;;;;;5059926;28;20409;-60
2023/10/15 04:01:30;;;;;;;19.50;12.77;;;;;;;;;;5061184;28;20469;-60
2023/10/15 04:04:01;;;;;;;16.60;12.38;;;;;;;;;;5062193;28;20411;-61
2023/10/15 04:06:29;;;;;;;15.73;12.27;;;;;;;;;;5061880;28;20878;-61
2023/10/15 04:09:13;;;;;;;18.42;10.35;;;;;;;;;;5060891;28;20412;-60
2023/10/15 04:11:43;;;;;;;13.53;9.30;;;;;;;;;;5061162;28;20425;-58
2023/10/15 04:14:13;;;;;;;10.40;8.68;;;;;;;;;;5059486;28;20783;-62
2023/10/15 04:16:40;;;;;;;11.43;7.60;;;;;;;;;;5061052;28;20465;-62
2023/10/15 04:19:07;;;;;;;10.50;6.38;;;;;;;;;;5062425;28;20408;-61
2023/10/15 04:21:38;;;;;;;13.90;7.32;;;;;;;;;;5059196;28;21195;-59
2023/10/15 04:24:06;;;;;;;8.00;5.83;;;;;;;;;;5060763;28;20415;-62
2023/10/15 04:26:35;;;;;;;7.53;5.28;;;;;;;;;;5061844;28;20484;-61
2023/10/15 04:29:15;;;;;;;6.93;5.37;;;;;;;;;;5059435;28;20840;-60
2023/10/15 04:31:44;;;;;;;8.30;5.37;;;;;;;;;;5058703;28;20513;-59
2023/10/15 04:34:16;;;;;;;7.40;4.93;;;;;;;;;;5062514;28;20411;-60
2023/10/15 04:36:45;;;;;;;9.10;5.15;;;;;;;;;;5058794;28;20771;-61
2023/10/15 04:39:13;;;;;;;8.55;5.75;;;;;;;;;;5061084;28;20801;-59
2023/10/15 04:41:40;;;;;;;8.33;5.87;;;;;;;;;;5060746;28;20897;-62
2023/10/15 04:44:13;;;;;;;9.70;6.00;;;;;;;;;;5058553;28;20418;-61
2023/10/15 04:46:42;;;;;;;7.93;5.60;;;;;;;;;;5060284;28;20415;-62
2023/10/15 04:49:10;;;;;;;12.25;5.80;;;;;;;;;;5061517;28;20418;-59
2023/10/15 04:51:42;;;;;;;8.10;4.90;;;;;;;;;;5058643;28;20436;-59
2023/10/15 04:54:11;;;;;;;7.00;5.10;;;;;;;;;;5059133;28;20482;-60
2023/10/15 04:56:38;;;;;;;9.35;5.57;;;;;;;;;;5061372;28;20423;-58
2023/10/15 04:59:05;;;;;;;7.50;5.30;;;;;;;;;;5059843;28;20790;-62
2023/10/15 05:01:33;;;;;;;6.43;4.60;;;;;;;;;;5059197;28;20768;-61
2023/10/15 05:04:01;;;;;;;6.55;4.38;;;;;;;;;;5061205;28;20955;-60
2023/10/15 05:06:28;;;;;;;8.32;4.32;;;;;;;;;;5060113;28;20412;-60
2023/10/15 05:08:55;;;;;;;7.20;4.53;;;;;;;;;;5060692;28;20412;-59
2023/10/15 05:11:24;;;;;;;7.78;4.07;;;;;;;;;;5061393;28;20411;-62
2023/10/15 05:13:51;;;;;;;7.28;3.60;;;;;;;;;;5060114;28;20443;-61
2023/10/15 05:16:18;;;;;;;4.37;3.20;;;;;;;;;;5058883;28;20413;-60
2023/10/15 05:18:47;;;;;;;5.57;3.75;;;;;;;;;;5058732;28;20895;-59
2023/10/15 05:21:14;;;;;;;6.88;3.35;;;;;;;;;;5060159;28;20420;-59
2023/10/15 05:23:41;;;;;;;5.55;3.65;;;;;;;;;;5061337;28;20407;-61
2023/10/15 05:26:08;;;;;;;5.73;3.07;;;;;;;;;;5050134;28;20409;-58
2023/10/15 05:28:36;;;;;;;5.32;3.50;;;;;;;;;;5050360;28;20455;-60
2023/10/15 05:31:03;;;;;;;5.35;3.00;;;;;;;;;;5050688;28;20871;-61
2023/10/15 05:33:30;;;;;;;5.07;3.50;;;;;;;;;;5062106;28;20433;-61
2023/10/15 05:35:58;;;;;;;5.20;3.30;;;;;;;;;;5064108;28;20420;-61
2023/10/15 05:38:26;;;;;;;5.87;3.40;;;;;;;;;;5058752;28;20456;-63
2023/10/15 05:40:58;;;;;;;5.40;3.28;;;;;;;;;;5061493;28;20423;-63
2023/10/15 05:43:25;;;;;;;5.72;3.22;;;;;;;;;;5060258;28;20497;-63
2023/10/15 05:45:53;;;;;;;5.13;3.65;;;;;;;;;;5058315;28;20413;-63
2023/10/15 05:48:20;;;;;;;6.68;3.13;;;;;;;;;;5060611;28;20407;-63
2023/10/15 05:50:48;;;;;;;4.57;2.70;;;;;;;;;;5061309;28;20516;-63
2023/10/15 05:53:15;;;;;;;4.80;2.58;;;;;;;;;;5061070;28;20435;-62
2023/10/15 05:55:42;;;;;;;5.10;2.85;;;;;;;;;;5059425;28;20492;-60
2023/10/15 05:58:09;;;;;;;4.88;2.47;;;;;;;;;;5060304;28;20409;-62
2023/10/15 06:00:39;;;;;;;3.73;2.30;;;;;;;;;;5060970;28;20407;-62
2023/10/15 06:03:08;;;;;;;4.30;2.70;;;;;;;;;;5060094;28;20409;-59
2023/10/15 06:05:35;;;;;;;4.50;3.03;;;;;;;;;;5062338;28;20844;-62
2023/10/15 06:08:04;;;;;;;3.60;2.72;;;;;;;;;;5062053;28;20470;-61
2023/10/15 06:10:32;;;;;;;6.35;2.85;;;;;;;;;;5063637;28;20805;-60
2023/10/15 06:13:00;;;;;;;4.13;2.80;;;;;;;;;;5064292;28;20423;-61
2023/10/15 06:15:28;;;;;;;3.83;2.88;;;;;;;;;;5061870;28;20488;-60
2023/10/15 06:17:55;;;;;;;4.57;3.15;;;;;;;;;;5063302;28;20820;-61
2023/10/15 06:20:24;;;;;;;4.70;3.13;;;;;;;;;;5064528;28;20446;-59
2023/10/15 06:22:55;;;;;;;4.17;2.90;;;;;;;;;;5062119;28;20772;-63
2023/10/15 06:25:23;;;;;;;4.15;3.10;;;;;;;;;;5062599;28;20851;-62
2023/10/15 06:27:50;;;;;;;4.35;2.95;;;;;;;;;;5064289;28;20422;-60
2023/10/15 06:30:17;;;;;;;8.50;3.70;;;;;;;;;;5058796;28;20449;-61
2023/10/15 06:32:44;;;;;;;5.15;3.00;;;;;;;;;;5060449;28;20463;-62
2023/10/15 06:35:16;;;;;;;5.57;3.45;;;;;;;;;;5062389;28;20411;-62
2023/10/15 06:37:44;;;;;;;6.22;3.30;;;;;;;;;;5058405;28;20419;-62
2023/10/15 06:40:13;;;;;;;5.05;3.15;;;;;;;;;;5061677;28;20893;-63
2023/10/15 06:42:40;;;;;;;4.75;3.45;;;;;;;;;;5060336;28;21046;-62
2023/10/15 06:45:07;;;;;;;4.38;3.25;;;;;;;;;;5063734;28;20411;-61
2023/10/15 06:47:35;;;;;;;6.65;3.90;;;;;;;;;;5063564;28;20415;-62
2023/10/15 06:50:06;;;;;;;5.45;3.58;;;;;;;;;;5060723;28;20411;-64
2023/10/15 06:52:33;;;;;;;5.13;3.50;;;;;;;;;;5058883;28;20531;-63
2023/10/15 06:55:01;;;;;;;5.18;3.47;;;;;;;;;;5058089;28;20961;-63
2023/10/15 06:57:28;;;;;;;5.38;3.67;;;;;;;;;;5061919;28;20498;-63
2023/10/15 06:59:55;;;;;;;6.18;4.00;;;;;;;;;;5059468;28;20419;-60
2023/10/15 07:02:22;;;;;;;4.15;3.25;;;;;;;;;;5057907;28;20472;-62
2023/10/15 07:04:49;;;;;;;9.15;3.60;;;;;;;;;;5059540;28;20425;-65
2023/10/15 07:07:16;;;;;;;4.68;3.30;;;;;;;;;;5061725;28;20432;-66
2023/10/15 07:09:43;;;;;;;4.43;3.05;;;;;;;;;;5057303;28;20467;-65
2023/10/15 07:12:12;;;;;;;3.97;3.10;;;;;;;;;;5053214;28;20426;-64
2023/10/15 07:14:39;;;;;;;6.43;2.80;;;;;;;;;;5058130;28;20500;-65
2023/10/15 07:17:06;;;;;;;3.45;2.50;;;;;;;;;;5060791;28;20411;-65
2023/10/15 07:19:34;;;;;;;4.45;2.60;;;;;;;;;;5057543;28;20826;-65
2023/10/15 07:22:01;;;;;;;3.60;2.47;;;;;;;;;;5057548;28;20500;-65
2023/10/15 07:24:30;;;;;;;4.15;2.67;;;;;;;;;;5057511;28;20467;-66
2023/10/15 07:26:57;;;;;;;2.63;2.28;;;;;;;;;;5059371;28;20420;-65
2023/10/15 07:29:27;;;;;;;3.42;2.60;;;;;;;;;;5059211;28;20486;-66
2023/10/15 07:31:55;;;;;;;5.53;2.70;;;;;;;;;;5056873;28;20996;-65
2023/10/15 07:34:22;;;;;;;4.93;2.50;;;;;;;;;;5058775;28;20471;-66
2023/10/15 07:36:50;;;;;;;4.28;2.63;;;;;;;;;;5053377;28;20437;-65
2023/10/15 07:39:17;;;;;;;4.82;2.70;;;;;;;;;;5058983;28;20415;-65
2023/10/15 07:41:45;;;;;;;4.35;2.40;;;;;;;;;;5058937;28;20408;-66
2023/10/15 07:44:14;;;;;;;2.85;2.22;;;;;;;;;;5059900;28;20453;-65
2023/10/15 07:46:43;;;;;;;5.32;3.00;;;;;;;;;;5059483;28;20417;-65
2023/10/15 07:49:12;;;;;;;6.38;3.35;;;;;;;;;;5058375;28;20491;-63
2023/10/15 07:51:39;;;;;;;4.70;2.80;;;;;;;;;;5059733;28;20850;-65
2023/10/15 07:54:06;;;;;;;5.47;3.00;;;;;;;;;;5056786;28;20884;-66
2023/10/15 07:56:34;;;;;;;5.13;2.70;;;;;;;;;;5058020;28;20902;-65
2023/10/15 07:59:04;;;;;;;4.70;2.70;;;;;;;;;;5059302;28;20418;-64
2023/10/15 08:01:31;;;;;;;4.00;2.85;;;;;;;;;;5057399;28;20409;-65
2023/10/15 08:04:00;;;;;;;2.70;2.30;;;;;;;;;;5057624;28;20409;-65
2023/10/15 08:06:27;;;;;;;3.95;2.25;;;;;;;;;;5059325;28;20498;-62
2023/10/15 08:08:54;;;;;;;4.40;2.33;;;;;;;;;;5056654;28;20482;-62
2023/10/15 08:11:21;;;;;;;3.30;2.47;;;;;;;;;;5057876;28;20495;-62
2023/10/15 08:13:48;;;;;;;3.03;2.22;;;;;;;;;;5061645;28;20519;-63
2023/10/15 08:16:15;;;;;;;3.42;2.17;;;;;;;;;;5058872;28;20494;-63
2023/10/15 08:18:42;;;;;;;3.97;2.15;;;;;;;;;;5059687;28;20460;-64
2023/10/15 08:21:11;;;;;;;2.58;1.83;;;;;;;;;;5061007;28;20415;-62
2023/10/15 08:23:39;;;;;;;4.40;2.10;;;;;;;;;;5050005;28;20553;-62
2023/10/15 08:26:06;;;;;;;3.47;1.70;;;;;;;;;;5050029;28;20499;-62
2023/10/15 08:28:33;;;;;;;2.30;1.60;;;;;;;;;;5049779;28;20541;-63
2023/10/15 08:31:00;;;;;;;3.65;1.92;;;;;;;;;;5058975;28;20415;-63
2023/10/15 08:33:27;;;;;;;2.88;1.80;;;;;;;;;;5060170;28;20909;-62
2023/10/15 08:35:54;;;;;;;5.03;1.70;;;;;;;;;;5059685;28;20409;-66
2023/10/15 08:38:25;;;;;;;3.87;1.83;;;;;;;;;;5058893;28;20407;-66
2023/10/15 08:40:53;;;;;;;3.38;1.50;;;;;;;;;;5059869;28;20929;-66
2023/10/15 08:43:21;;;;;;;3.88;2.03;;;;;;;;;;5064901;28;20422;-65
2023/10/15 08:45:51;;;;;;;3.90;1.90;;;;;;;;;;5059556;28;20519;-69
2023/10/15 08:48:19;;;;;;;5.25;1.50;;;;;;;;;;5058630;28;20413;-67
2023/10/15 08:50:46;;;;;;;3.28;1.80;;;;;;;;;;5058033;28;20466;-63
2023/10/15 08:53:14;;;;;;;3.03;1.53;;;;;;;;;;5059494;28;20487;-63
2023/10/15 08:55:45;;;;;;;4.17;1.77;;;;;;;;;;5059884;28;21559;-65
2023/10/15 08:58:12;;;;;;;2.80;1.85;;;;;;;;;;5061362;28;20412;-65
2023/10/15 09:00:40;;;;;;;5.22;2.45;;;;;;;;;;5058482;28;20408;-65
2023/10/15 09:03:13;;;;;;;4.93;1.98;;;;;;;;;;5058323;28;20476;-64
2023/10/15 09:05:42;;;;;;;3.95;1.90;;;;;;;;;;5054556;28;20576;-65
2023/10/15 09:08:12;;;;;;;3.10;1.70;;;;;;;;;;5057958;28;20407;-64
2023/10/15 09:10:41;;;;;;;2.92;1.70;;;;;;;;;;5046488;28;20863;-65
2023/10/15 09:13:14;;;;;;;3.42;1.85;;;;;;;;;;5046766;28;20516;-64
2023/10/15 09:15:43;;;;;;;3.00;2.00;;;;;;;;;;5054476;28;20404;-66
2023/10/15 09:18:11;;;;;;;4.95;2.83;;;;;;;;;;5058010;28;20508;-65
2023/10/15 09:20:42;;;;;;;4.53;2.55;;;;;;;;;;5057646;28;20436;-65
2023/10/15 09:23:09;;;;;;;6.50;2.88;;;;;;;;;;5059341;28;20461;-68
2023/10/15 09:25:36;;;;;;;7.00;3.67;;;;;;;;;;5060497;28;20745;-68
2023/10/15 09:28:05;;;;;;;4.53;3.75;;;;;;;;;;5060684;28;20496;-65
2023/10/15 09:30:34;;;;;;;7.30;3.90;;;;;;;;;;5056739;28;20415;-67
2023/10/15 09:33:01;;;;;;;6.05;3.45;;;;;;;;;;5059936;28;20428;-65
2023/10/15 09:35:29;;;;;;;5.03;3.67;;;;;;;;;;5057205;28;20416;-64
2023/10/15 09:37:57;;;;;;;4.37;3.13;;;;;;;;;;5059268;28;20431;-63
2023/10/15 09:40:30;;;;;;;4.68;3.20;;;;;;;;;;5061862;28;20483;-64
2023/10/15 09:42:59;;;;;;;3.33;2.60;;;;;;;;;;5062314;28;20491;-64
2023/10/15 09:45:26;;;;;;;3.17;1.77;;;;;;;;;;5062251;28;20413;-64
2023/10/15 09:47:57;;;;;;;3.22;2.05;;;;;;;;;;5065060;28;20412;-64
2023/10/15 09:50:25;;;;;;;2.45;1.63;;;;;;;;;;5063101;28;20849;-64
2023/10/15 09:52:56;;;;;;;3.45;1.67;;;;;;;;;;5061122;28;20459;-64
2023/10/15 09:55:24;;;;;;;3.07;1.50;;;;;;;;;;5062754;28;20563;-64
2023/10/15 09:57:53;;;;;;;2.58;1.48;;;;;;;;;;5062392;28;20448;-63
2023/10/15 10:00:32;;;;;;;3.20;1.40;;;;;;;;;;5063717;28;20411;-64
2023/10/15 10:03:25;;;;;;;3.58;1.48;;;;;;;;;;5074490;28;20438;-63
2023/10/15 10:05:58;;;;;;;2.77;1.00;;;;;;;;;;5064780;28;20446;-64
2023/10/15 10:08:33;;;;;;;1.77;1.20;;;;;;;;;;5064958;28;20880;-67
2023/10/15 10:11:13;;;;;;;2.30;1.00;;;;;;;;;;5061274;28;20782;-69
2023/10/15 10:14:00;;;;;;;3.35;1.40;;;;;;;;;;5060776;28;20440;-66
2023/10/15 10:16:30;;;;;;;4.35;1.38;;;;;;;;;;5061102;28;20417;-66
2023/10/15 10:18:58;;;;;;;4.03;1.20;;;;;;;;;;5063039;28;20816;-63
2023/10/15 10:21:30;;;;;;;2.40;1.23;;;;;;;;;;5063465;28;20890;-65
2023/10/15 10:23:58;;;;;;;2.10;1.45;;;;;;;;;;5061385;28;20409;-64
2023/10/15 10:26:28;;;;;;;2.42;1.35;;;;;;;;;;5062120;28;20409;-64
2023/10/15 10:28:56;;;;;;;3.00;1.25;;;;;;;;;;5060805;28;20475;-65
2023/10/15 10:31:23;;;;;;;3.33;1.50;;;;;;;;;;5063502;28;20427;-63
2023/10/15 10:33:53;;;;;;;2.55;1.58;;;;;;;;;;5063353;28;20800;-68
2023/10/15 10:36:25;;;;;;;2.72;1.65;;;;;;;;;;5061849;28;20510;-66
2023/10/15 10:39:00;;;;;;;2.03;1.15;;;;;;;;;;5063246;28;20413;-67
2023/10/15 10:41:37;;;;;;;3.08;1.50;;;;;;;;;;5052222;28;20790;-66
2023/10/15 10:44:04;;;;;;;4.55;1.40;;;;;;;;;;5061937;28;20495;-64
2023/10/15 10:46:31;;;;;;;2.67;1.65;;;;;;;;;;5064846;28;20889;-64
2023/10/15 10:49:05;;;;;;;4.40;1.70;;;;;;;;;;5061267;28;20417;-63
2023/10/15 10:51:34;;;;;;;4.50;1.98;;;;;;;;;;5051368;28;21045;-65
2023/10/15 10:54:19;;;;;;;4.03;2.47;;;;;;;;;;5053226;28;20468;-66
2023/10/15 10:57:13;;;;;;;3.80;2.00;;;;;;;;;;5064792;28;20415;-65
2023/10/15 10:59:42;;;;;;;3.33;1.80;;;;;;;;;;5014275;28;20465;-64
2023/10/15 11:02:13;;;;;;;2.30;1.80;;;;;;;;;;5060310;28;20413;-66
2023/10/15 11:04:40;;;;;;;3.97;1.77;;;;;;;;;;5061563;28;20578;-64
2023/10/15 11:07:10;;;;;;;3.13;1.33;;;;;;;;;;5059581;28;20448;-67
2023/10/15 11:09:38;;;;;;;4.00;2.47;;;;;;;;;;5061671;28;20476;-67
2023/10/15 11:12:07;;;;;;;6.82;4.60;;;;;;;;;;5062395;28;20470;-65
2023/10/15 11:14:34;;;;;;;3.65;1.92;;;;;;;;;;5060081;28;20425;-65
2023/10/15 11:17:02;;;;;;;3.88;1.83;;;;;;;;;;5061735;28;20416;-64
2023/10/15 11:19:30;;;;;;;3.13;1.85;;;;;;;;;;5062411;28;20458;-65
2023/10/15 11:21:57;;;;;;;4.07;2.10;;;;;;;;;;5051150;28;20803;-65
2023/10/15 11:24:26;;;;;;;3.60;2.00;;;;;;;;;;5051076;28;20951;-65
2023/10/15 11:26:54;;;;;;;3.90;1.70;;;;;;;;;;5051452;28;20409;-66
2023/10/15 11:29:22;;;;;;;4.65;1.40;;;;;;;;;;5051184;28;20836;-64
2023/10/15 11:31:49;;;;;;;4.57;1.30;;;;;;;;;;5051186;28;20458;-66
2023/10/15 11:34:19;;;;;;;4.90;1.67;;;;;;;;;;5062341;28;20473;-65
2023/10/15 11:36:48;;;;;;;3.22;1.27;;;;;;;;;;5058459;28;20448;-66
2023/10/15 11:39:19;;;;;;;3.70;1.00;;;;;;;;;;5061408;28;20412;-66
2023/10/15 11:41:50;;;;;;;3.22;1.08;;;;;;;;;;5059273;28;20425;-66
2023/10/15 11:44:25;;;;;;;2.88;1.30;;;;;;;;;;5060366;28;20451;-65
2023/10/15 11:46:52;;;;;;;3.38;1.50;;;;;;;;;;5059492;28;20802;-66
2023/10/15 11:49:22;;;;;;;3.38;1.50;;;;;;;;;;5060155;28;20407;-65
2023/10/15 11:51:49;;;;;;;3.05;1.13;;;;;;;;;;5062123;28;20469;-65
2023/10/15 11:54:16;;;;;;;3.20;1.23;;;;;;;;;;5059633;28;20542;-66
2023/10/15 11:56:46;;;;;;;3.47;1.17;;;;;;;;;;5060082;28;20885;-65
2023/10/15 11:59:16;;;;;;;3.53;1.10;;;;;;;;;;5064203;28;20404;-65
2023/10/15 12:01:44;;;;;;;3.97;1.40;;;;;;;;;;5060458;28;20500;-66
2023/10/15 12:04:12;;;;;;;2.85;0.90;;;;;;;;;;5060104;28;20945;-65
2023/10/15 12:06:39;;;;;;;2.70;1.02;;;;;;;;;;5058408;28;20420;-65
2023/10/15 12:09:12;;;;;;;3.25;1.00;;;;;;;;;;5059727;28;20428;-67
2023/10/15 12:11:39;;;;;;;2.23;0.80;;;;;;;;;;5058585;28;20492;-65
2023/10/15 12:14:06;;;;;;;2.28;0.98;;;;;;;;;;5060995;28;20427;-65
2023/10/15 12:16:39;;;;;;;2.88;1.20;;;;;;;;;;5059149;28;20427;-65
2023/10/15 12:19:08;;;;;;;2.58;0.98;;;;;;;;;;5063038;28;20412;-65
2023/10/15 12:21:35;;;;;;;3.40;1.38;;;;;;;;;;5060614;28;20469;-66
2023/10/15 12:24:02;;;;;;;2.78;1.13;;;;;;;;;;5061452;28;20936;-65
2023/10/15 12:26:29;;;;;;;2.92;1.40;;;;;;;;;;5050044;28;20501;-65
2023/10/15 12:28:56;;;;;;;3.13;1.42;;;;;;;;;;5049467;28;20409;-60
2023/10/15 12:31:24;;;;;;;2.95;1.55;;;;;;;;;;5049629;28;20413;-63
2023/10/15 12:33:52;;;;;;;1.80;1.40;;;;;;;;;;5058352;28;20907;-65
2023/10/15 12:36:21;;;;;;;2.58;1.75;;;;;;;;;;5057984;28;20413;-64
2023/10/15 12:38:48;;;;;;;4.97;1.98;;;;;;;;;;5057947;28;20424;-63
2023/10/15 12:41:15;;;;;;;3.97;2.10;;;;;;;;;;5058039;28;20901;-66
2023/10/15 12:43:46;;;;;;;5.47;3.23;;;;;;;;;;5058843;28;20872;-64
2023/10/15 12:46:13;;;;;;;5.15;3.03;;;;;;;;;;5061013;28;20419;-63
2023/10/15 12:48:40;;;;;;;3.70;2.17;;;;;;;;;;5058452;28;20475;-63
2023/10/15 12:51:08;;;;;;;4.68;2.10;;;;;;;;;;5058931;28;20415;-64
2023/10/15 12:53:35;;;;;;;3.65;2.13;;;;;;;;;;5060767;28;20779;-65
2023/10/15 12:56:02;;;;;;;3.33;1.90;;;;;;;;;;5058076;28;21163;-63
2023/10/15 12:58:29;;;;;;;2.55;1.60;;;;;;;;;;5058861;28;20411;-65
2023/10/15 13:00:58;;;;;;;1.95;1.20;;;;;;;;;;5060709;28;20433;-63
2023/10/15 13:03:25;;;;;;;2.85;1.80;;;;;;;;;;5058384;28;20417;-63
2023/10/15 13:05:52;;;;;;;3.40;1.52;;;;;;;;;;5056316;28;20430;-63
2023/10/15 13:08:20;;;;;;;3.28;1.40;;;;;;;;;;5060752;28;20416;-62
2023/10/15 13:10:47;;;;;;;2.30;1.20;;;;;;;;;;5058162;28;20413;-62
2023/10/15 13:13:14;;;;;;;2.55;1.15;;;;;;;;;;5058459;28;20407;-62
2023/10/15 13:15:41;;;;;;;2.45;1.10;;;;;;;;;;5060705;28;20445;-63
2023/10/15 13:18:08;;;;;;;4.15;1.10;;;;;;;;;;5058174;28;20440;-63
2023/10/15 13:20:36;;;;;;;2.17;0.90;;;;;;;;;;5058980;28;20438;-63
2023/10/15 13:23:03;;;;;;;1.98;0.80;;;;;;;;;;5061433;28;20450;-62
2023/10/15 13:25:31;;;;;;;2.00;1.00;;;;;;;;;;5062843;28;20409;-63
2023/10/15 13:27:58;;;;;;;2.67;1.10;;;;;;;;;;5058738;28;20407;-64
2023/10/15 13:30:25;;;;;;;3.03;0.80;;;;;;;;;;5060441;28;20520;-63
2023/10/15 13:32:53;;;;;;;2.13;0.90;;;;;;;;;;5057774;28;20838;-64
2023/10/15 13:35:21;;;;;;;3.25;1.08;;;;;;;;;;5058091;28;20484;-62
2023/10/15 13:37:48;;;;;;;3.17;1.30;;;;;;;;;;5057182;28;20413;-61
2023/10/15 13:40:15;;;;;;;2.33;1.13;;;;;;;;;;5057969;28;20409;-64
2023/10/15 13:42:46;;;;;;;2.03;0.70;;;;;;;;;;5058734;28;20798;-64
2023/10/15 13:45:15;;;;;;;3.13;0.90;;;;;;;;;;5060432;28;20920;-64
2023/10/15 13:47:42;;;;;;;1.50;0.90;;;;;;;;;;5058327;28;20502;-64
2023/10/15 13:50:12;;;;;;;3.70;0.80;;;;;;;;;;5057814;28;20409;-66
2023/10/15 13:52:40;;;;;;;1.90;0.60;;;;;;;;;;5060516;28;20416;-64
2023/10/15 13:55:08;;;;;;;2.13;0.65;;;;;;;;;;5059022;28;20486;-63
2023/10/15 13:57:37;;;;;;;6.03;3.05;;;;;;;;;;5057936;28;20445;-62
2023/10/15 14:00:11;;;;;;;5.40;2.30;;;;;;;;;;5057627;28;20409;-63
2023/10/15 14:02:38;;;;;;;2.38;0.85;;;;;;;;;;5057556;28;20401;-66
2023/10/15 14:05:05;;;;;;;3.80;0.90;;;;;;;;;;5057848;28;20466;-64
2023/10/15 14:07:32;;;;;;;2.97;1.00;;;;;;;;;;5059290;28;20940;-63
2023/10/15 14:09:59;;;;;;;3.42;0.95;;;;;;;;;;5059369;28;20407;-69
2023/10/15 14:12:26;;;;;;;2.88;0.80;;;;;;;;;;5057085;28;20418;-67
2023/10/15 14:14:53;;;;;;;2.30;0.70;;;;;;;;;;5059626;28;20900;-68
2023/10/15 14:17:22;;;;;;;2.72;1.00;;;;;;;;;;5059090;28;20412;-68
2023/10/15 14:19:50;;;;;;;3.80;0.90;;;;;;;;;;5056815;28;20892;-69
2023/10/15 14:22:18;;;;;;;2.47;0.77;;;;;;;;;;5059142;28;20467;-65
2023/10/15 14:24:46;;;;;;;2.70;0.98;;;;;;;;;;5061697;28;20404;-63
2023/10/15 14:27:13;;;;;;;1.97;1.00;;;;;;;;;;5061045;28;20409;-63
2023/10/15 14:29:41;;;;;;;3.15;1.25;;;;;;;;;;5062097;28;20447;-64
2023/10/15 14:32:08;;;;;;;3.13;1.20;;;;;;;;;;5062993;28;20465;-64
2023/10/15 14:34:37;;;;;;;3.92;1.67;;;;;;;;;;5059723;28;20421;-67
2023/10/15 14:37:06;;;;;;;4.53;1.73;;;;;;;;;;5060013;28;20826;-65
2023/10/15 14:39:33;;;;;;;6.47;1.63;;;;;;;;;;5063172;28;20419;-64
2023/10/15 14:42:00;;;;;;;4.47;1.73;;;;;;;;;;5060434;28;20811;-65
2023/10/15 14:44:27;;;;;;;4.60;1.80;;;;;;;;;;5062514;28;20399;-64
2023/10/15 14:46:56;;;;;;;5.25;2.05;;;;;;;;;;5063224;28;20872;-63
2023/10/15 14:49:23;;;;;;;3.20;1.77;;;;;;;;;;5061572;28;20815;-63